Time;durP1;ratioP1;P1;durP2;ratioP2;P2;SDS_P1;SDS_P2;PMS_P1;PMS_P2;Temp;Humidity;BMP_temperature;BMP_pressure;BME280_temperature;BME280_humidity;BME280_pressure;Samples;Min_cycle;Max_cycle;Signal;HPM_P1;HPM_P2
2022/01/23 00:02:18;;;;;;;17.60;11.53;;;5.50;99.90;;;;;;5030398;28;20231;-75
2022/01/23 00:04:44;;;;;;;16.30;10.97;;;5.50;99.90;;;;;;5010582;28;20217;-78
2022/01/23 00:07:12;;;;;;;18.23;10.70;;;5.50;99.90;;;;;;5010886;28;20224;-77
2022/01/23 00:09:38;;;;;;;20.70;12.13;;;5.60;99.90;;;;;;5010914;28;20190;-76
2022/01/23 00:12:09;;;;;;;18.33;11.80;;;5.60;99.90;;;;;;5010748;28;20289;-77
2022/01/23 00:17:22;;;;;;;17.60;11.43;;;5.60;99.90;;;;;;5013222;28;20300;-75
2022/01/23 00:19:51;;;;;;;19.57;12.00;;;5.60;99.90;;;;;;5013935;28;20207;-76
2022/01/23 00:22:18;;;;;;;18.90;11.43;;;5.60;99.90;;;;;;5014414;28;20220;-76
2022/01/23 00:30:27;;;;;;;19.27;10.90;;;5.60;99.90;;;;;;5014216;28;20629;-77
2022/01/23 00:32:54;;;;;;;17.57;11.23;;;5.60;99.90;;;;;;4985336;28;20300;-76
2022/01/23 00:35:20;;;;;;;22.20;14.20;;;5.60;99.90;;;;;;5010393;28;20209;-77
2022/01/23 00:37:46;;;;;;;20.63;12.20;;;5.60;99.90;;;;;;5013870;28;20215;-79
2022/01/23 00:40:12;;;;;;;18.83;11.47;;;5.60;99.90;;;;;;4984784;28;20702;-77
2022/01/23 00:42:37;;;;;;;18.63;10.40;;;5.60;99.90;;;;;;5013518;28;20621;-77
2022/01/23 00:47:38;;;;;;;17.53;10.37;;;5.60;99.90;;;;;;5013782;28;20217;-76
2022/01/23 00:50:04;;;;;;;18.43;11.37;;;5.70;99.90;;;;;;5013401;28;20244;-77
2022/01/23 00:52:29;;;;;;;17.30;9.63;;;5.60;99.90;;;;;;5013540;28;20213;-77
2022/01/23 00:54:55;;;;;;;15.70;9.57;;;5.70;99.90;;;;;;5013255;28;20259;-79
2022/01/23 00:57:21;;;;;;;16.07;8.97;;;5.60;99.90;;;;;;4996369;28;20185;-77
2022/01/23 00:59:46;;;;;;;15.90;9.43;;;5.60;99.90;;;;;;5013166;28;20238;-77
2022/01/23 01:02:12;;;;;;;16.30;9.80;;;5.60;99.90;;;;;;5012116;28;20727;-77
2022/01/23 01:04:38;;;;;;;17.30;9.17;;;5.70;99.90;;;;;;5013108;28;20224;-77
2022/01/23 01:07:03;;;;;;;13.80;9.40;;;5.60;99.90;;;;;;5013418;28;20225;-77
2022/01/23 01:09:30;;;;;;;15.83;9.43;;;5.60;99.90;;;;;;4995655;28;20277;-77
2022/01/23 01:12:03;;;;;;;14.63;8.63;;;5.60;99.90;;;;;;5013302;28;20351;-75
2022/01/23 01:17:07;;;;;;;12.43;7.43;;;5.60;99.90;;;;;;5013282;28;20693;-77
2022/01/23 01:30:54;;;;;;;9.10;6.20;;;5.60;99.90;;;;;;5013085;28;20243;-76
2022/01/23 01:33:42;;;;;;;10.03;5.90;;;5.60;99.90;;;;;;5013774;28;20209;-77
2022/01/23 01:38:42;;;;;;;10.83;6.43;;;5.70;99.90;;;;;;5012416;28;20208;-77
2022/01/23 01:41:07;;;;;;;9.13;5.87;;;5.70;99.90;;;;;;4995020;28;20220;-77
2022/01/23 01:43:33;;;;;;;9.13;5.97;;;5.70;99.90;;;;;;5011349;28;20231;-77
2022/01/23 01:45:58;;;;;;;8.37;5.97;;;5.80;99.90;;;;;;5012349;28;20184;-77
2022/01/23 01:48:25;;;;;;;10.17;5.93;;;5.80;99.90;;;;;;4995242;28;20177;-75
2022/01/23 01:50:54;;;;;;;9.33;6.03;;;5.80;99.90;;;;;;5012430;28;20597;-75
2022/01/23 01:53:20;;;;;;;8.87;5.80;;;5.80;99.90;;;;;;5012370;28;20231;-75
2022/01/23 01:55:50;;;;;;;8.87;5.63;;;5.80;99.90;;;;;;5011950;28;20263;-75
2022/01/23 02:02:47;;;;;;;9.23;5.10;;;5.80;99.90;;;;;;4996168;28;20217;-76
2022/01/23 02:09:27;;;;;;;8.93;6.13;;;5.80;99.90;;;;;;5012354;28;20232;-76
2022/01/23 02:12:18;;;;;;;8.53;5.80;;;5.80;99.90;;;;;;5012191;28;20205;-75
2022/01/23 02:15:10;;;;;;;9.27;6.63;;;5.80;99.90;;;;;;5011989;28;20255;-76
2022/01/23 02:23:20;;;;;;;10.13;6.43;;;5.80;99.90;;;;;;5012241;28;20259;-75
2022/01/23 02:55:42;;;;;;;11.33;5.83;;;5.80;99.90;;;;;;5030968;28;20715;-77
2022/01/23 02:58:10;;;;;;;9.23;5.70;;;5.80;99.90;;;;;;5013341;28;20219;-76
2022/01/23 03:00:46;;;;;;;8.40;5.57;;;5.80;99.90;;;;;;5031168;28;20192;-76
2022/01/23 03:03:14;;;;;;;8.50;5.53;;;5.80;99.90;;;;;;5031303;28;20786;-76
2022/01/23 03:05:40;;;;;;;9.03;5.63;;;5.80;99.90;;;;;;5013098;28;20231;-76
2022/01/23 03:08:42;;;;;;;10.63;6.23;;;5.80;99.90;;;;;;5012977;28;20222;-76
2022/01/23 03:11:16;;;;;;;10.90;5.67;;;5.80;99.90;;;;;;5030958;28;20264;-76
2022/01/23 03:13:50;;;;;;;9.30;5.50;;;5.80;99.90;;;;;;5012947;28;20602;-76
2022/01/23 03:24:34;;;;;;;8.50;5.80;;;5.80;99.90;;;;;;5030912;28;20219;-76
2022/01/23 03:32:40;;;;;;;8.57;5.40;;;5.80;99.90;;;;;;4997008;28;20204;-76
2022/01/23 03:35:06;;;;;;;9.57;5.80;;;5.70;99.90;;;;;;5030681;28;20234;-76
2022/01/23 03:37:32;;;;;;;8.50;5.43;;;5.70;99.90;;;;;;5026108;28;20219;-76
2022/01/23 03:39:58;;;;;;;7.40;5.10;;;5.80;99.90;;;;;;5030113;28;20173;-76
2022/01/23 03:42:24;;;;;;;7.13;4.63;;;5.80;99.90;;;;;;5030728;28;20180;-76
2022/01/23 03:47:41;;;;;;;8.20;5.60;;;5.80;99.90;;;;;;5009574;28;20262;-77
2022/01/23 03:50:09;;;;;;;8.00;5.40;;;5.80;99.90;;;;;;5030031;28;20294;-75
2022/01/23 03:52:35;;;;;;;8.07;5.57;;;5.80;99.90;;;;;;5033062;28;20346;-76
2022/01/23 03:55:04;;;;;;;7.30;4.90;;;5.80;99.90;;;;;;5016587;28;20256;-77
2022/01/23 03:57:29;;;;;;;7.90;5.23;;;5.80;99.90;;;;;;5016800;28;20264;-76
2022/01/23 03:59:55;;;;;;;7.37;4.87;;;5.80;99.90;;;;;;5034094;28;20361;-76
2022/01/23 04:02:20;;;;;;;8.27;5.10;;;5.80;99.90;;;;;;5033967;28;20244;-76
2022/01/23 04:04:46;;;;;;;8.30;5.30;;;5.80;99.90;;;;;;5034150;28;20619;-76
2022/01/23 04:07:32;;;;;;;9.93;5.20;;;5.80;99.90;;;;;;5033998;28;20250;-76
2022/01/23 04:09:57;;;;;;;10.60;5.93;;;5.80;99.90;;;;;;5027366;28;20640;-76
2022/01/23 04:16:09;;;;;;;11.33;6.80;;;5.80;99.90;;;;;;5034263;28;20238;-76
2022/01/23 04:20:46;;;;;;;10.23;6.43;;;5.80;99.90;;;;;;5033511;28;20215;-76
2022/01/23 05:01:27;;;;;;;7.20;5.00;;;5.70;99.90;;;;;;5032859;28;20233;-76
2022/01/23 05:04:15;;;;;;;11.43;5.50;;;5.70;99.90;;;;;;5024988;28;20195;-76
2022/01/23 05:06:47;;;;;;;9.83;5.60;;;5.70;99.90;;;;;;5033169;28;20257;-76
2022/01/23 05:09:14;;;;;;;9.77;5.67;;;5.70;99.90;;;;;;5010643;28;20230;-79
2022/01/23 05:11:48;;;;;;;8.23;5.73;;;5.70;99.90;;;;;;5032556;28;20302;-76
2022/01/23 05:14:15;;;;;;;8.47;5.43;;;5.70;99.90;;;;;;5032975;28;20222;-76
2022/01/23 05:16:41;;;;;;;9.20;6.03;;;5.70;99.90;;;;;;5032522;28;20206;-78
2022/01/23 05:19:06;;;;;;;11.77;5.83;;;5.70;99.90;;;;;;5015019;28;20367;-76
2022/01/23 05:21:53;;;;;;;10.10;5.50;;;5.70;99.90;;;;;;5032870;28;20203;-76
2022/01/23 05:24:22;;;;;;;9.70;6.30;;;5.80;99.90;;;;;;5032847;28;20243;-77
2022/01/23 05:26:47;;;;;;;12.70;6.73;;;5.70;99.90;;;;;;5024668;28;20223;-77
2022/01/23 05:29:14;;;;;;;11.17;6.10;;;5.70;99.90;;;;;;5014729;28;20208;-76
2022/01/23 05:31:40;;;;;;;11.40;6.77;;;5.80;99.90;;;;;;5032337;28;20345;-76
2022/01/23 05:34:06;;;;;;;10.40;6.40;;;5.80;99.90;;;;;;5015295;28;20234;-76
2022/01/23 05:36:32;;;;;;;14.37;7.30;;;5.70;99.90;;;;;;5013110;28;20176;-76
2022/01/23 05:38:58;;;;;;;12.47;6.93;;;5.80;99.90;;;;;;5032880;28;20212;-76
2022/01/23 05:41:24;;;;;;;11.50;7.27;;;5.70;99.90;;;;;;5014664;28;20721;-76
2022/01/23 05:43:50;;;;;;;11.23;7.10;;;5.80;99.90;;;;;;5015100;28;20262;-76
2022/01/23 05:46:16;;;;;;;12.40;7.53;;;5.80;99.90;;;;;;5014784;28;20624;-76
2022/01/23 05:48:42;;;;;;;11.23;7.23;;;5.70;99.90;;;;;;5014749;28;20267;-75
2022/01/23 05:51:12;;;;;;;14.53;7.67;;;5.70;99.90;;;;;;5014061;28;20681;-76
2022/01/23 05:53:38;;;;;;;10.93;6.93;;;5.80;99.90;;;;;;5044787;23;20231;-74
2022/01/23 05:56:04;;;;;;;11.70;7.27;;;5.80;99.90;;;;;;5030792;28;20205;-73
2022/01/23 05:58:29;;;;;;;14.73;7.83;;;5.70;99.90;;;;;;5032009;28;20238;-74
2022/01/23 06:00:55;;;;;;;11.67;7.67;;;5.70;99.90;;;;;;5031784;28;20700;-73
2022/01/23 06:03:21;;;;;;;12.23;7.97;;;5.80;99.90;;;;;;5015139;28;20240;-73
2022/01/23 06:05:46;;;;;;;14.50;7.37;;;5.80;99.90;;;;;;5015811;28;20219;-74
2022/01/23 06:08:12;;;;;;;12.73;8.10;;;5.80;99.90;;;;;;5006293;28;20282;-75
2022/01/23 06:10:53;;;;;;;11.83;7.63;;;5.80;99.90;;;;;;5031616;28;20307;-73
2022/01/23 06:13:19;;;;;;;10.87;7.10;;;5.80;99.90;;;;;;5031956;28;20314;-74
2022/01/23 06:15:44;;;;;;;13.97;8.13;;;5.80;99.90;;;;;;5010404;28;20200;-73
2022/01/23 06:18:10;;;;;;;12.10;7.67;;;5.80;99.90;;;;;;5019097;28;20189;-74
2022/01/23 06:20:35;;;;;;;11.73;7.33;;;5.80;99.90;;;;;;5015210;28;20254;-73
2022/01/23 06:23:01;;;;;;;11.17;7.33;;;5.80;99.90;;;;;;5014208;28;20582;-73
2022/01/23 06:25:32;;;;;;;14.93;8.57;;;5.80;99.90;;;;;;5031140;28;20266;-73
2022/01/23 06:27:59;;;;;;;13.80;7.83;;;5.80;99.90;;;;;;5026487;28;20586;-74
2022/01/23 06:30:24;;;;;;;10.93;7.63;;;5.80;99.90;;;;;;4995158;28;20192;-74
2022/01/23 06:32:50;;;;;;;11.53;7.60;;;5.80;99.90;;;;;;5009856;28;20693;-75
2022/01/23 06:35:15;;;;;;;13.10;7.63;;;5.80;99.90;;;;;;5019175;28;20266;-74
2022/01/23 06:37:41;;;;;;;11.03;7.07;;;5.80;99.90;;;;;;5012191;28;20216;-74
2022/01/23 06:40:07;;;;;;;11.87;7.60;;;5.80;99.90;;;;;;4993955;28;20732;-74
2022/01/23 06:42:32;;;;;;;11.83;7.47;;;5.80;99.90;;;;;;5010679;28;20176;-75
2022/01/23 06:44:59;;;;;;;12.60;7.80;;;5.80;99.90;;;;;;5019730;28;20244;-73
2022/01/23 06:47:25;;;;;;;10.00;7.20;;;5.90;99.90;;;;;;5027621;28;20291;-73
2022/01/23 06:49:51;;;;;;;12.07;6.47;;;5.80;99.90;;;;;;5006015;28;20785;-73
2022/01/23 06:52:16;;;;;;;10.50;6.33;;;5.90;99.90;;;;;;5023618;28;20682;-73
2022/01/23 06:54:43;;;;;;;9.70;6.97;;;5.90;99.90;;;;;;5012740;28;20620;-74
2022/01/23 06:57:08;;;;;;;11.03;6.80;;;5.90;99.90;;;;;;4998991;28;20677;-73
2022/01/23 06:59:34;;;;;;;11.13;7.40;;;5.90;99.90;;;;;;5013119;28;20216;-74
2022/01/23 07:02:00;;;;;;;11.73;7.23;;;5.90;99.90;;;;;;5030965;28;20249;-75
2022/01/23 07:04:25;;;;;;;11.50;6.83;;;5.90;99.90;;;;;;5022281;28;20221;-74
2022/01/23 07:06:51;;;;;;;10.13;6.43;;;5.90;99.90;;;;;;5005973;28;20188;-74
2022/01/23 07:09:18;;;;;;;9.53;6.40;;;5.90;99.90;;;;;;5031495;28;20180;-73
2022/01/23 07:11:44;;;;;;;8.67;6.00;;;5.90;99.90;;;;;;5005129;28;20203;-74
2022/01/23 07:14:10;;;;;;;9.73;6.03;;;5.90;99.90;;;;;;5031097;28;20231;-74
2022/01/23 07:16:35;;;;;;;10.03;7.10;;;5.90;99.90;;;;;;5030504;28;20203;-74
2022/01/23 07:19:01;;;;;;;12.27;7.27;;;5.90;99.90;;;;;;5025517;28;20177;-75
2022/01/23 07:21:26;;;;;;;10.63;6.47;;;5.90;99.90;;;;;;5010925;28;20208;-73
2022/01/23 07:23:52;;;;;;;13.17;6.70;;;5.90;99.90;;;;;;5018530;28;20626;-74
2022/01/23 07:26:20;;;;;;;10.13;6.83;;;5.90;99.90;;;;;;4992938;28;20300;-74
2022/01/23 07:28:46;;;;;;;10.03;6.20;;;5.90;99.90;;;;;;5004577;28;20207;-74
2022/01/23 07:31:20;;;;;;;11.20;6.63;;;5.90;99.90;;;;;;5023619;28;20220;-73
2022/01/23 07:33:46;;;;;;;11.63;6.77;;;5.90;99.90;;;;;;5022738;28;20673;-74
2022/01/23 07:36:11;;;;;;;11.17;6.50;;;5.90;99.90;;;;;;5030991;28;20255;-73
2022/01/23 07:38:37;;;;;;;8.43;5.97;;;5.90;99.90;;;;;;5022315;28;20224;-73
2022/01/23 07:41:02;;;;;;;10.40;6.70;;;5.90;99.90;;;;;;5030528;28;20216;-75
2022/01/23 07:43:28;;;;;;;9.13;6.20;;;6.00;99.90;;;;;;5004714;28;20217;-74
2022/01/23 07:45:53;;;;;;;10.60;6.40;;;6.00;99.90;;;;;;5030636;28;20168;-74
2022/01/23 07:48:19;;;;;;;11.13;6.50;;;6.00;99.90;;;;;;5005578;28;20176;-75
2022/01/23 07:50:44;;;;;;;8.33;6.17;;;5.90;99.90;;;;;;5026912;28;20260;-74
2022/01/23 07:53:10;;;;;;;10.53;6.77;;;6.00;99.90;;;;;;5001520;28;20215;-74
2022/01/23 07:55:35;;;;;;;10.23;6.37;;;6.00;99.90;;;;;;5028647;28;20249;-75
2022/01/23 07:58:10;;;;;;;12.10;6.03;;;6.00;99.90;;;;;;5030538;28;20181;-71
2022/01/23 08:00:36;;;;;;;10.23;6.27;;;6.10;99.90;;;;;;5012871;28;20208;-74
2022/01/23 08:03:01;;;;;;;8.23;5.97;;;6.10;99.90;;;;;;5022419;28;20204;-74
2022/01/23 08:05:27;;;;;;;10.53;6.60;;;6.20;99.90;;;;;;5030554;28;20291;-73
2022/01/23 08:07:53;;;;;;;12.33;6.60;;;6.10;99.90;;;;;;5013191;28;20204;-74
2022/01/23 08:10:18;;;;;;;10.63;6.70;;;6.10;99.90;;;;;;5015674;28;20294;-75
2022/01/23 08:12:44;;;;;;;8.93;5.97;;;6.20;99.90;;;;;;4996854;28;20247;-75
2022/01/23 08:15:10;;;;;;;8.57;5.33;;;6.20;99.90;;;;;;5032427;28;20193;-75
2022/01/23 08:17:38;;;;;;;9.53;5.57;;;6.30;99.90;;;;;;5003927;28;20231;-74
2022/01/23 08:20:07;;;;;;;8.37;5.30;;;6.40;99.90;;;;;;5031649;28;20636;-73
2022/01/23 08:22:33;;;;;;;7.90;5.10;;;6.40;99.90;;;;;;5013097;28;20847;-73
2022/01/23 08:25:01;;;;;;;7.83;4.77;;;6.50;99.90;;;;;;5008440;28;20344;-74
2022/01/23 08:27:28;;;;;;;9.63;5.50;;;6.50;99.90;;;;;;5032039;28;20653;-75
2022/01/23 08:29:54;;;;;;;8.13;5.70;;;6.60;99.90;;;;;;5013284;28;20610;-74
2022/01/23 08:32:20;;;;;;;8.37;5.43;;;6.60;99.90;;;;;;5030956;28;20304;-74
2022/01/23 08:34:46;;;;;;;8.60;5.53;;;6.70;99.90;;;;;;5031169;28;20208;-75
2022/01/23 08:37:12;;;;;;;10.30;5.37;;;6.80;99.90;;;;;;5014233;28;20216;-76
2022/01/23 08:39:39;;;;;;;6.73;4.90;;;6.80;99.90;;;;;;5006849;28;20210;-75
2022/01/23 08:42:07;;;;;;;8.17;4.83;;;6.90;99.90;;;;;;5019670;28;20208;-75
2022/01/23 08:44:37;;;;;;;7.43;4.80;;;6.90;99.90;;;;;;5017071;28;20291;-74
2022/01/23 08:47:04;;;;;;;7.80;4.93;;;6.90;99.90;;;;;;5003437;28;20278;-76
2022/01/23 08:49:30;;;;;;;6.90;4.60;;;6.90;99.90;;;;;;5014290;28;20595;-75
2022/01/23 08:51:58;;;;;;;6.03;4.40;;;6.90;99.90;;;;;;5011512;28;20311;-75
2022/01/23 08:54:25;;;;;;;7.83;4.00;;;7.00;99.90;;;;;;5013832;28;20631;-74
2022/01/23 08:56:51;;;;;;;6.57;4.60;;;7.00;99.90;;;;;;5034034;28;20615;-75
2022/01/23 08:59:17;;;;;;;6.10;4.13;;;6.90;99.90;;;;;;5008741;28;20300;-73
2022/01/23 09:01:45;;;;;;;7.00;5.00;;;6.90;99.90;;;;;;5014129;28;20220;-73
2022/01/23 09:04:15;;;;;;;7.23;4.27;;;6.80;99.90;;;;;;5020705;28;20220;-74
2022/01/23 09:06:41;;;;;;;7.60;4.30;;;6.80;99.90;;;;;;5031118;28;20181;-75
2022/01/23 09:09:14;;;;;;;7.63;4.30;;;6.80;99.90;;;;;;5027810;28;20208;-74
2022/01/23 09:11:51;;;;;;;6.80;4.57;;;6.90;99.90;;;;;;5033297;28;20243;-76
2022/01/23 09:14:20;;;;;;;6.63;4.67;;;6.80;99.90;;;;;;5025406;28;20223;-74
2022/01/23 09:16:46;;;;;;;8.33;4.83;;;6.70;99.90;;;;;;5004585;28;20201;-74
2022/01/23 09:19:11;;;;;;;7.80;5.20;;;6.80;99.90;;;;;;5010823;28;20211;-74
2022/01/23 09:21:38;;;;;;;7.13;4.50;;;6.80;99.90;;;;;;5033896;28;20208;-74
2022/01/23 09:24:05;;;;;;;7.80;4.50;;;6.80;99.90;;;;;;5018708;28;20255;-74
2022/01/23 09:26:31;;;;;;;6.20;4.60;;;6.70;99.90;;;;;;5022240;28;20223;-74
2022/01/23 09:29:00;;;;;;;7.50;4.80;;;6.80;99.90;;;;;;5019252;28;20209;-76
2022/01/23 09:31:32;;;;;;;6.77;4.23;;;6.90;99.90;;;;;;5003488;28;20238;-75
2022/01/23 09:33:58;;;;;;;7.30;4.77;;;6.90;99.90;;;;;;5004148;28;20201;-75
2022/01/23 09:36:24;;;;;;;7.50;4.77;;;7.00;99.90;;;;;;5021859;28;20183;-75
2022/01/23 09:38:49;;;;;;;8.43;4.30;;;7.10;99.90;;;;;;5007055;28;20211;-76
2022/01/23 09:41:17;;;;;;;6.50;4.50;;;7.20;99.90;;;;;;5024473;28;20212;-74
2022/01/23 09:43:43;;;;;;;7.37;4.67;;;7.40;99.90;;;;;;5021340;28;20208;-74
2022/01/23 09:46:09;;;;;;;5.90;4.47;;;7.50;99.90;;;;;;5013665;28;20682;-75
2022/01/23 09:48:35;;;;;;;6.27;3.87;;;7.60;99.90;;;;;;5027730;28;20189;-75
2022/01/23 09:51:02;;;;;;;6.83;4.17;;;7.50;99.90;;;;;;5011622;28;20711;-75
2022/01/23 09:53:29;;;;;;;6.63;3.73;;;7.40;99.90;;;;;;5032939;28;20593;-75
2022/01/23 09:55:59;;;;;;;5.90;4.30;;;7.30;99.90;;;;;;5019871;28;20219;-74
2022/01/23 09:58:25;;;;;;;5.70;3.80;;;7.20;99.90;;;;;;5024217;28;20268;-74
2022/01/23 10:00:51;;;;;;;5.70;4.13;;;7.20;99.90;;;;;;5006203;28;20218;-74
2022/01/23 10:03:19;;;;;;;5.77;3.53;;;7.10;99.90;;;;;;5007394;28;20205;-74
2022/01/23 10:05:49;;;;;;;4.97;3.47;;;7.20;99.90;;;;;;5014453;28;20237;-75
2022/01/23 10:08:16;;;;;;;6.27;4.00;;;7.20;99.90;;;;;;5016641;28;20240;-75
2022/01/23 10:10:42;;;;;;;7.07;4.47;;;7.20;99.90;;;;;;5020500;28;20213;-76
2022/01/23 10:13:09;;;;;;;5.73;3.40;;;7.20;99.90;;;;;;5012396;28;20679;-75
2022/01/23 10:15:34;;;;;;;6.20;4.10;;;7.30;99.90;;;;;;4997064;28;20231;-74
2022/01/23 10:18:01;;;;;;;5.07;3.93;;;7.40;99.90;;;;;;5000641;28;20208;-74
2022/01/23 10:20:27;;;;;;;5.73;3.87;;;7.40;99.90;;;;;;5029085;28;20688;-75
2022/01/23 10:22:54;;;;;;;6.37;4.07;;;7.40;99.90;;;;;;5023782;28;20209;-74
2022/01/23 10:25:24;;;;;;;5.80;4.53;;;7.30;99.90;;;;;;5013492;28;20220;-74
2022/01/23 10:27:55;;;;;;;6.23;4.17;;;7.40;99.90;;;;;;5031378;28;20176;-75
2022/01/23 10:30:24;;;;;;;7.03;4.53;;;7.50;99.90;;;;;;5006007;28;20180;-76
2022/01/23 10:32:57;;;;;;;7.20;4.50;;;7.60;99.90;;;;;;5013951;28;20750;-75
2022/01/23 10:35:23;;;;;;;5.40;3.57;;;7.70;99.90;;;;;;5031524;28;20204;-74
2022/01/23 10:37:49;;;;;;;5.57;3.40;;;7.80;99.90;;;;;;5019503;28;20216;-75
2022/01/23 10:40:21;;;;;;;6.10;3.90;;;7.80;99.90;;;;;;5019828;28;20217;-74
2022/01/23 10:43:07;;;;;;;4.83;3.27;;;7.80;99.90;;;;;;5014985;28;20168;-75
2022/01/23 10:48:45;;;;;;;5.23;3.07;;;7.80;99.90;;;;;;5031205;28;20269;-75
2022/01/23 10:51:35;;;;;;;5.57;4.10;;;7.70;99.90;;;;;;5031224;28;20223;-74
2022/01/23 10:54:14;;;;;;;6.07;3.90;;;7.70;99.90;;;;;;5012877;28;20292;-76
2022/01/23 10:57:03;;;;;;;6.97;3.80;;;7.60;99.90;;;;;;5030870;28;20211;-74
2022/01/23 10:59:40;;;;;;;6.07;3.23;;;7.60;99.90;;;;;;5030919;28;20212;-72
2022/01/23 11:02:14;;;;;;;4.77;3.53;;;7.60;99.90;;;;;;5021961;28;20220;-74
2022/01/23 11:04:53;;;;;;;6.80;3.47;;;7.70;99.90;;;;;;5013333;28;20803;-74
2022/01/23 11:07:20;;;;;;;5.70;3.40;;;7.80;99.90;;;;;;5031129;28;20717;-74
2022/01/23 11:09:46;;;;;;;5.30;3.70;;;7.80;99.90;;;;;;5030797;28;20184;-75
2022/01/23 11:17:56;;;;;;;6.97;4.00;;;8.00;99.90;;;;;;5018353;28;20262;-74
2022/01/23 11:20:37;;;;;;;6.67;3.87;;;8.00;99.90;;;;;;4993475;28;20563;-73
2022/01/23 11:23:23;;;;;;;6.77;3.53;;;8.10;99.90;;;;;;5030805;28;20551;-76
2022/01/23 11:25:54;;;;;;;3.80;2.50;;;8.10;99.90;;;;;;5026455;28;20733;-76
2022/01/23 11:28:37;;;;;;;4.63;3.10;;;8.20;99.90;;;;;;5001326;28;20219;-74
2022/01/23 11:31:29;;;;;;;4.43;3.27;;;8.20;99.90;;;;;;5010752;28;20649;-74
2022/01/23 11:33:56;;;;;;;3.37;2.77;;;8.30;99.90;;;;;;5021655;28;20204;-74
2022/01/23 11:36:22;;;;;;;6.07;3.30;;;8.30;99.90;;;;;;5022852;28;20184;-74
2022/01/23 11:38:49;;;;;;;4.40;3.00;;;8.40;99.90;;;;;;5012960;28;20208;-74
2022/01/23 11:54:51;;;;;;;3.07;2.50;;;8.60;99.90;;;;;;5046400;23;20287;-77
2022/01/23 11:57:43;;;;;;;2.97;2.40;;;8.50;99.90;;;;;;5009294;28;20234;-76
2022/01/23 12:00:17;;;;;;;3.43;2.43;;;8.40;99.90;;;;;;5030347;28;20212;-75
2022/01/23 12:02:44;;;;;;;3.50;2.53;;;8.40;99.90;;;;;;5009714;28;20740;-76
2022/01/23 12:05:18;;;;;;;4.43;2.77;;;8.40;99.90;;;;;;5012856;28;20697;-76
2022/01/23 12:07:45;;;;;;;4.23;3.00;;;8.30;99.90;;;;;;4992961;28;20197;-75
2022/01/23 12:10:26;;;;;;;4.50;3.27;;;8.30;99.90;;;;;;4993255;28;20205;-77
2022/01/23 12:13:55;;;;;;;2.47;1.90;;;8.20;99.90;;;;;;5012500;28;20231;-79
2022/01/23 12:18:51;;;;;;;3.43;2.23;;;8.20;99.90;;;;;;5006181;28;20184;-77
2022/01/23 12:21:37;;;;;;;3.97;2.20;;;8.20;99.90;;;;;;4997227;28;20271;-76
2022/01/23 12:24:06;;;;;;;3.47;2.40;;;8.20;99.90;;;;;;4996699;28;20212;-77
2022/01/23 12:26:32;;;;;;;2.50;1.57;;;8.20;99.90;;;;;;5013933;28;20303;-76
2022/01/23 12:29:10;;;;;;;3.17;1.90;;;8.10;99.90;;;;;;5013854;28;20705;-76
2022/01/23 12:31:36;;;;;;;4.40;3.20;;;8.20;99.90;;;;;;5013726;28;20717;-76
2022/01/23 12:34:02;;;;;;;3.53;2.20;;;8.30;99.90;;;;;;4996373;28;20192;-77
2022/01/23 12:36:31;;;;;;;3.30;2.40;;;8.30;99.90;;;;;;4996632;28;20709;-76
2022/01/23 12:39:09;;;;;;;4.13;1.93;;;8.30;99.90;;;;;;4995896;28;20713;-76
2022/01/23 12:41:51;;;;;;;3.70;2.77;;;8.30;99.90;;;;;;5013465;28;20209;-76
2022/01/23 12:44:23;;;;;;;4.03;2.00;;;8.30;99.90;;;;;;5013858;28;20742;-77
2022/01/23 12:46:51;;;;;;;2.87;2.27;;;8.20;99.90;;;;;;4996271;28;20201;-76
2022/01/23 12:49:16;;;;;;;4.20;2.17;;;8.10;99.90;;;;;;4995887;28;20213;-76
2022/01/23 12:51:42;;;;;;;2.50;1.40;;;8.10;99.90;;;;;;4996154;28;20204;-77
2022/01/23 12:54:11;;;;;;;3.97;1.93;;;8.00;99.90;;;;;;5013442;28;20288;-76
2022/01/23 12:56:45;;;;;;;3.23;1.70;;;7.90;99.90;;;;;;5013311;28;20729;-77
2022/01/23 12:59:19;;;;;;;2.70;1.90;;;7.90;99.90;;;;;;5013615;28;20217;-77
2022/01/23 13:01:46;;;;;;;5.17;2.10;;;7.80;99.90;;;;;;4995471;28;20701;-77
2022/01/23 13:04:12;;;;;;;4.07;1.87;;;7.80;99.90;;;;;;5013558;28;20236;-76
2022/01/23 13:06:59;;;;;;;4.00;2.20;;;7.70;99.90;;;;;;5013417;28;20204;-76
2022/01/23 13:12:49;;;;;;;3.37;1.80;;;7.70;99.90;;;;;;5013315;28;20259;-77
2022/01/23 13:15:15;;;;;;;3.07;2.30;;;7.70;99.90;;;;;;5005016;28;20685;-77
2022/01/23 13:32:12;;;;;;;3.10;2.70;;;7.70;99.90;;;;;;4997179;28;20215;-77
2022/01/23 13:34:41;;;;;;;3.07;1.90;;;7.70;99.90;;;;;;4995349;28;20213;-77
2022/01/23 13:37:25;;;;;;;4.67;2.20;;;7.70;99.90;;;;;;5012497;28;20228;-77
2022/01/23 13:39:57;;;;;;;2.57;1.67;;;7.70;99.90;;;;;;5005234;28;20201;-77
2022/01/23 13:59:28;;;;;;;3.77;1.73;;;7.70;99.90;;;;;;5012434;28;20823;-76
2022/01/23 14:04:26;;;;;;;2.63;1.70;;;7.70;99.90;;;;;;5012249;28;20229;-75
2022/01/23 14:06:52;;;;;;;3.57;2.63;;;7.70;99.90;;;;;;5012080;28;20661;-77
2022/01/23 14:09:20;;;;;;;2.47;1.80;;;7.70;99.90;;;;;;5012439;28;20193;-77
2022/01/23 14:11:46;;;;;;;3.13;2.30;;;7.70;99.90;;;;;;4994312;28;20237;-77
2022/01/23 14:14:21;;;;;;;3.33;2.20;;;7.60;99.90;;;;;;4994476;28;20220;-77
2022/01/23 14:16:48;;;;;;;2.47;1.67;;;7.70;99.90;;;;;;4994417;28;20684;-77
2022/01/23 14:19:29;;;;;;;3.20;1.90;;;7.70;99.90;;;;;;4994153;28;20213;-77
2022/01/23 14:21:59;;;;;;;1.70;1.30;;;7.60;99.90;;;;;;5011558;28;20205;-77
2022/01/23 14:24:31;;;;;;;2.30;1.33;;;7.70;99.90;;;;;;4994748;28;20213;-77
2022/01/23 14:27:13;;;;;;;1.90;1.40;;;7.70;99.90;;;;;;5011491;28;20209;-78
2022/01/23 14:29:51;;;;;;;1.80;1.30;;;7.70;99.90;;;;;;5011349;28;20212;-77
2022/01/23 14:32:30;;;;;;;2.37;1.60;;;7.70;99.90;;;;;;4993525;28;20673;-76
2022/01/23 14:35:20;;;;;;;2.17;1.40;;;7.70;99.90;;;;;;5012083;28;20212;-76
2022/01/23 14:37:48;;;;;;;2.60;1.50;;;7.70;99.90;;;;;;5011081;28;20209;-77
2022/01/23 14:40:26;;;;;;;2.97;1.47;;;7.70;99.90;;;;;;4994325;28;20248;-77
2022/01/23 14:43:03;;;;;;;2.10;1.70;;;7.70;99.90;;;;;;4993306;28;20191;-76
2022/01/23 14:45:30;;;;;;;7.40;4.03;;;7.70;99.90;;;;;;5011666;28;20204;-77
2022/01/23 14:47:55;;;;;;;5.80;3.37;;;7.60;99.90;;;;;;5011268;28;20586;-77
2022/01/23 14:50:24;;;;;;;5.87;3.40;;;7.60;99.90;;;;;;4993692;28;20217;-75
2022/01/23 14:52:49;;;;;;;6.67;2.93;;;7.60;99.90;;;;;;4993761;28;20213;-76
2022/01/23 14:55:15;;;;;;;4.93;2.60;;;7.60;99.90;;;;;;5010212;28;20251;-78
2022/01/23 14:57:41;;;;;;;3.77;2.50;;;7.50;99.90;;;;;;4993584;28;20196;-77
2022/01/23 15:00:10;;;;;;;2.13;1.23;;;7.50;99.90;;;;;;5011348;28;20240;-76
2022/01/23 15:02:35;;;;;;;2.60;1.77;;;7.50;99.90;;;;;;5010872;28;20279;-77
2022/01/23 15:05:03;;;;;;;2.80;1.30;;;7.40;99.90;;;;;;5011291;28;20221;-77
2022/01/23 15:07:40;;;;;;;1.53;1.17;;;7.50;99.90;;;;;;5010743;28;20267;-77
2022/01/23 15:10:08;;;;;;;2.23;1.30;;;7.50;99.90;;;;;;5011101;28;20682;-77
2022/01/23 15:12:34;;;;;;;2.60;1.37;;;7.50;99.90;;;;;;5011169;28;20177;-77
2022/01/23 15:15:00;;;;;;;3.43;2.20;;;7.50;99.90;;;;;;4993779;28;20208;-77
2022/01/23 15:17:26;;;;;;;4.20;2.63;;;7.50;99.90;;;;;;5010604;28;20208;-76
2022/01/23 15:19:52;;;;;;;2.53;1.90;;;7.40;99.90;;;;;;5011041;28;20255;-76
2022/01/23 15:22:18;;;;;;;2.40;1.63;;;7.40;99.90;;;;;;5010704;28;20311;-76
2022/01/23 15:24:45;;;;;;;2.10;1.37;;;7.40;99.90;;;;;;4993880;28;20240;-76
2022/01/23 15:27:10;;;;;;;2.97;1.50;;;7.40;99.90;;;;;;4993233;28;20221;-75
2022/01/23 15:29:36;;;;;;;2.20;1.20;;;7.40;99.90;;;;;;5010595;28;20217;-75
2022/01/23 15:32:02;;;;;;;2.57;1.50;;;7.40;99.90;;;;;;5010765;28;20220;-75
2022/01/23 15:34:29;;;;;;;3.20;1.50;;;7.40;99.90;;;;;;5010546;28;20229;-76
2022/01/23 15:36:55;;;;;;;2.10;1.40;;;7.30;99.90;;;;;;5010794;28;20176;-76
2022/01/23 15:39:22;;;;;;;1.73;1.23;;;7.30;99.90;;;;;;4993388;28;20177;-76
2022/01/23 15:41:48;;;;;;;1.90;1.17;;;7.30;99.90;;;;;;5010417;28;20283;-77
2022/01/23 15:44:13;;;;;;;3.60;1.53;;;7.30;99.90;;;;;;5010841;28;20247;-76
2022/01/23 15:46:42;;;;;;;2.90;1.10;;;7.30;99.90;;;;;;5010489;28;20227;-76
2022/01/23 15:49:08;;;;;;;1.67;1.10;;;7.30;99.90;;;;;;4996833;28;20208;-76
2022/01/23 15:51:35;;;;;;;1.63;1.10;;;7.20;99.90;;;;;;4997217;28;20184;-76
2022/01/23 15:54:00;;;;;;;3.30;1.10;;;7.20;99.90;;;;;;4996364;28;20253;-76
2022/01/23 15:56:26;;;;;;;2.27;1.20;;;7.20;99.90;;;;;;5014359;28;20213;-76
2022/01/23 15:58:51;;;;;;;1.97;1.57;;;7.20;99.90;;;;;;4996859;28;20263;-76
2022/01/23 16:01:17;;;;;;;1.57;1.20;;;7.20;99.90;;;;;;5014413;28;20654;-76
2022/01/23 16:03:42;;;;;;;1.83;1.40;;;7.20;99.90;;;;;;5014842;28;20240;-76
2022/01/23 16:06:08;;;;;;;1.40;1.30;;;7.10;99.90;;;;;;5014455;28;20213;-77
2022/01/23 16:08:35;;;;;;;1.10;0.80;;;7.10;99.90;;;;;;5014056;28;20215;-76
2022/01/23 16:11:02;;;;;;;2.90;1.23;;;7.10;99.90;;;;;;4997024;28;20281;-76
2022/01/23 16:13:29;;;;;;;2.60;1.07;;;7.10;99.90;;;;;;4997811;28;20752;-76
2022/01/23 16:15:54;;;;;;;1.43;1.03;;;7.10;99.90;;;;;;4996700;28;20773;-77
2022/01/23 16:18:20;;;;;;;1.13;0.97;;;7.10;99.90;;;;;;5014508;28;20256;-76